Time;durP1;ratioP1;P1;durP2;ratioP2;P2;SDS_P1;SDS_P2;PMS_P1;PMS_P2;Temp;Humidity;BMP_temperature;BMP_pressure;BME280_temperature;BME280_humidity;BME280_pressure;Samples;Min_cycle;Max_cycle;Signal;HPM_P1;HPM_P2
2022/05/03 00:00:24;;;;;;;0.40;0.30;;;;;;;9.72;80.99;101131.59;5073907;28;20465;-71
2022/05/03 00:03:02;;;;;;;0.40;0.30;;;;;;;9.79;80.24;101121.28;5073872;28;20441;-70
2022/05/03 00:05:39;;;;;;;0.40;0.30;;;;;;;9.85;79.23;101122.84;5073501;28;20504;-68
2022/05/03 00:08:12;;;;;;;0.40;0.30;;;;;;;9.96;79.57;101122.75;5073817;28;20449;-68
2022/05/03 00:10:47;;;;;;;0.40;0.30;;;;;;;9.98;80.41;101115.19;5073557;28;20543;-74
2022/05/03 00:13:19;;;;;;;0.40;0.30;;;;;;;10.06;80.88;101111.84;5073884;28;20425;-71
2022/05/03 00:15:47;;;;;;;0.40;0.30;;;;;;;10.04;81.75;101112.13;5073699;28;20422;-71
2022/05/03 00:18:14;;;;;;;0.40;0.30;;;;;;;10.10;81.71;101107.50;5073652;28;20449;-71
2022/05/03 00:20:41;;;;;;;0.40;0.30;;;;;;;10.16;82.05;101100.94;5073622;28;20453;-71
2022/05/03 00:23:09;;;;;;;0.40;0.30;;;;;;;10.26;81.94;101106.28;5073297;28;20453;-70
2022/05/03 00:25:35;;;;;;;0.40;0.30;;;;;;;10.35;81.84;101101.84;5073368;28;20908;-71
2022/05/03 00:28:03;;;;;;;0.40;0.30;;;;;;;10.34;81.01;101102.94;5073193;28;20446;-72
2022/05/03 00:30:30;;;;;;;0.40;0.30;;;;;;;10.24;81.69;101100.34;5073115;28;20975;-72
2022/05/03 00:32:59;;;;;;;0.40;0.30;;;;;;;10.31;81.28;101095.41;5073371;28;20460;-72
2022/05/03 00:35:25;;;;;;;0.40;0.30;;;;;;;10.30;81.52;101093.78;5073411;28;20827;-72
2022/05/03 00:37:52;;;;;;;0.40;0.30;;;;;;;10.41;81.46;101093.69;5073372;28;20499;-71
2022/05/03 00:40:23;;;;;;;1.43;1.33;;;;;;;10.44;80.63;101098.50;5073279;28;20465;-71
2022/05/03 00:42:59;;;;;;;0.40;0.30;;;;;;;10.41;79.22;101104.53;5073199;28;20428;-71
2022/05/03 00:45:31;;;;;;;0.40;0.30;;;;;;;10.31;79.18;101095.41;5072838;28;20476;-71
2022/05/03 00:48:07;;;;;;;0.60;0.57;;;;;;;10.25;79.14;101098.44;5072925;28;20499;-72
2022/05/03 00:50:36;;;;;;;0.40;0.30;;;;;;;10.28;79.08;101101.38;5072932;28;20523;-72
2022/05/03 00:53:09;;;;;;;0.40;0.30;;;;;;;10.24;78.46;101092.22;5072611;28;20863;-71
2022/05/03 00:55:53;;;;;;;0.40;0.30;;;;;;;10.22;78.47;101086.25;5072616;28;20933;-72
2022/05/03 00:58:38;;;;;;;0.40;0.30;;;;;;;10.11;78.47;101090.16;5072864;28;20451;-72
2022/05/03 01:01:06;;;;;;;0.40;0.30;;;;;;;10.02;80.11;101094.56;5072860;28;20426;-71
2022/05/03 01:03:42;;;;;;;0.40;0.30;;;;;;;9.99;81.02;101084.31;5072776;28;20440;-71
2022/05/03 01:06:20;;;;;;;0.40;0.30;;;;;;;9.93;81.49;101086.25;5072600;28;20556;-71
2022/05/03 01:09:01;;;;;;;0.40;0.30;;;;;;;9.88;82.42;101091.72;5072355;28;20481;-72
2022/05/03 01:11:37;;;;;;;0.40;0.30;;;;;;;9.87;83.48;101087.38;5072858;28;20417;-71
2022/05/03 01:14:26;;;;;;;0.40;0.30;;;;;;;9.78;84.89;101099.91;5072690;28;20430;-71
2022/05/03 01:16:59;;;;;;;0.40;0.30;;;;;;;9.89;83.77;101106.06;5072611;28;20469;-71
2022/05/03 01:19:37;;;;;;;0.40;0.30;;;;;;;10.09;82.92;101105.84;5075586;28;20519;-71
2022/05/03 01:22:09;;;;;;;1.57;1.23;;;;;;;10.05;82.89;101105.66;5076259;28;20843;-71
2022/05/03 01:24:58;;;;;;;0.40;0.30;;;;;;;10.10;82.23;101104.78;5076632;28;20491;-71
2022/05/03 01:27:51;;;;;;;0.40;0.30;;;;;;;10.01;83.15;101099.19;5076484;28;20659;-71
2022/05/03 01:30:19;;;;;;;0.40;0.30;;;;;;;9.89;83.82;101096.03;5076378;28;20513;-72
2022/05/03 01:32:46;;;;;;;0.80;0.80;;;;;;;10.01;83.16;101092.97;5076400;28;20451;-72
2022/05/03 01:35:14;;;;;;;0.40;0.30;;;;;;;9.94;82.80;101085.16;5076427;28;20444;-71
2022/05/03 01:38:06;;;;;;;0.40;0.30;;;;;;;9.86;80.39;101094.69;5076867;28;20490;-72
2022/05/03 01:40:47;;;;;;;0.40;0.30;;;;;;;9.80;82.32;101095.84;5076623;28;20465;-72
2022/05/03 01:43:21;;;;;;;0.40;0.30;;;;;;;9.85;81.58;101094.97;5076228;28;20926;-72
2022/05/03 01:46:04;;;;;;;0.40;0.30;;;;;;;9.77;80.62;101092.88;5076063;28;20494;-71
2022/05/03 01:51:42;;;;;;;0.40;0.30;;;;;;;9.70;81.15;101090.50;5075956;28;20416;-72
2022/05/03 01:54:24;;;;;;;0.40;0.30;;;;;;;9.65;82.65;101093.25;5076021;28;20433;-72
2022/05/03 01:56:58;;;;;;;0.40;0.30;;;;;;;9.71;82.98;101083.19;5075880;28;20457;-72
2022/05/03 01:59:37;;;;;;;0.40;0.30;;;;;;;9.73;83.96;101091.81;5075799;28;20464;-71
2022/05/03 02:02:13;;;;;;;0.40;0.30;;;;;;;9.62;84.52;101091.09;5075952;28;20436;-71
2022/05/03 02:05:01;;;;;;;0.40;0.30;;;;;;;9.62;84.47;101084.91;5075779;28;20429;-72
2022/05/03 02:07:41;;;;;;;0.40;0.30;;;;;;;9.58;84.04;101082.75;5075370;28;20555;-72
2022/05/03 02:10:13;;;;;;;0.40;0.30;;;;;;;9.43;85.45;101079.34;5075633;28;20473;-72
2022/05/03 02:12:45;;;;;;;0.40;0.30;;;;;;;9.51;84.54;101084.16;5076028;28;20436;-72
2022/05/03 02:15:16;;;;;;;0.40;0.30;;;;;;;9.50;84.59;101083.34;5076048;28;20430;-71
2022/05/03 02:17:53;;;;;;;0.40;0.30;;;;;;;9.42;84.39;101077.72;5075908;28;20437;-70
2022/05/03 02:21:04;;;;;;;0.40;0.30;;;;;;;9.37;84.56;101081.28;5075794;28;20464;-70
2022/05/03 02:23:42;;;;;;;0.40;0.30;;;;;;;9.27;84.20;101094.84;4994287;28;20843;-71
2022/05/03 02:26:21;;;;;;;0.40;0.30;;;;;;;9.25;84.57;101081.63;5065219;28;21030;-71
2022/05/03 02:28:55;;;;;;;0.40;0.30;;;;;;;9.20;84.25;101084.34;5075135;28;20808;-71
2022/05/03 02:31:31;;;;;;;0.40;0.30;;;;;;;9.17;85.36;101089.53;5075935;28;20433;-70
2022/05/03 02:34:04;;;;;;;0.40;0.30;;;;;;;9.16;84.62;101083.28;5075271;28;20471;-71
2022/05/03 02:36:42;;;;;;;0.40;0.30;;;;;;;9.10;82.46;101081.69;5075547;28;20502;-71
2022/05/03 02:39:13;;;;;;;0.40;0.30;;;;;;;9.08;81.56;101081.19;5075527;28;20457;-71
2022/05/03 02:41:42;;;;;;;1.17;1.17;;;;;;;8.91;82.98;101078.84;5075555;28;20425;-71
2022/05/03 02:44:09;;;;;;;0.57;0.53;;;;;;;8.81;83.01;101087.00;5075525;28;20433;-70
2022/05/03 02:46:49;;;;;;;0.40;0.30;;;;;;;8.80;82.57;101085.34;5075332;28;20484;-71
2022/05/03 02:49:20;;;;;;;0.40;0.30;;;;;;;8.73;84.01;101087.56;5075065;28;20468;-71
2022/05/03 02:51:56;;;;;;;0.40;0.30;;;;;;;8.70;85.01;101080.00;5075375;28;20526;-71
2022/05/03 02:54:37;;;;;;;0.40;0.30;;;;;;;8.64;86.10;101081.91;5075326;28;20474;-71
2022/05/03 02:57:20;;;;;;;0.40;0.30;;;;;;;8.63;86.84;101091.09;5074989;28;20421;-71
2022/05/03 03:03:00;;;;;;;0.40;0.30;;;;;;;8.60;86.77;101083.56;5075041;28;20401;-72
2022/05/03 03:05:30;;;;;;;0.40;0.30;;;;;;;8.58;87.46;101091.09;5075167;28;20429;-74
2022/05/03 03:08:01;;;;;;;0.40;0.30;;;;;;;8.53;88.07;101081.13;5074891;28;20477;-68
2022/05/03 03:10:32;;;;;;;0.40;0.30;;;;;;;8.51;88.68;101088.72;5074663;28;20480;-75
2022/05/03 03:13:06;;;;;;;0.40;0.30;;;;;;;8.55;88.95;101088.97;5075993;28;20439;-73
2022/05/03 03:15:39;;;;;;;0.40;0.30;;;;;;;8.45;89.65;101083.59;5074992;28;20418;-74
2022/05/03 03:18:18;;;;;;;0.40;0.30;;;;;;;8.37;89.77;101086.84;5075056;28;20459;-74
2022/05/03 03:20:47;;;;;;;0.40;0.30;;;;;;;8.49;88.97;101088.16;5074848;28;20441;-74
2022/05/03 03:23:15;;;;;;;0.40;0.30;;;;;;;8.37;89.62;101089.53;5074739;28;20445;-74
2022/05/03 03:25:43;;;;;;;0.50;0.43;;;;;;;8.27;88.70;101093.84;5074363;28;21007;-74
2022/05/03 03:28:13;;;;;;;0.40;0.30;;;;;;;8.19;88.90;101086.34;5074593;28;20485;-74
2022/05/03 03:30:40;;;;;;;0.40;0.30;;;;;;;8.17;87.96;101091.19;5074509;28;20492;-74
2022/05/03 03:33:08;;;;;;;0.40;0.30;;;;;;;8.14;87.68;101089.00;5074464;28;20499;-73
2022/05/03 03:35:36;;;;;;;0.40;0.30;;;;;;;8.14;87.03;101094.41;5074470;28;20449;-73
2022/05/03 03:38:05;;;;;;;0.40;0.30;;;;;;;8.14;86.89;101099.00;5074374;28;20429;-73
2022/05/03 03:40:32;;;;;;;0.40;0.30;;;;;;;8.15;87.38;101096.06;5073606;28;20457;-75
2022/05/03 03:42:58;;;;;;;0.40;0.30;;;;;;;8.16;86.66;101103.06;5074204;28;20441;-74
2022/05/03 03:45:25;;;;;;;0.40;0.30;;;;;;;8.21;86.32;101104.94;5074303;28;20848;-73
2022/05/03 03:47:52;;;;;;;0.40;0.30;;;;;;;8.09;88.79;101099.81;5074034;28;20897;-74
2022/05/03 03:50:19;;;;;;;0.40;0.30;;;;;;;8.15;89.04;101100.63;5074099;28;20469;-74
2022/05/03 03:52:47;;;;;;;0.40;0.30;;;;;;;8.15;90.05;101101.44;5073796;28;20865;-74
2022/05/03 03:55:16;;;;;;;0.40;0.30;;;;;;;8.20;90.17;101082.53;5074037;28;20441;-74
2022/05/03 03:57:43;;;;;;;0.40;0.30;;;;;;;8.40;89.50;101097.09;5073955;28;20441;-74
2022/05/03 04:00:12;;;;;;;0.40;0.30;;;;;;;8.49;89.19;101103.56;5073850;28;20464;-74
2022/05/03 04:02:41;;;;;;;0.40;0.30;;;;;;;8.45;90.17;101106.00;5073989;28;20447;-73
2022/05/03 04:05:08;;;;;;;0.40;0.30;;;;;;;8.71;88.81;101104.03;5073908;28;20445;-74
2022/05/03 04:07:35;;;;;;;1.23;1.23;;;;;;;8.77;88.76;101102.13;5073846;28;20477;-74
2022/05/03 04:10:01;;;;;;;0.40;0.30;;;;;;;8.90;88.62;101101.53;5073311;28;20994;-74
2022/05/03 04:12:30;;;;;;;0.40;0.30;;;;;;;9.00;88.59;101108.78;5073712;28;20453;-74
2022/05/03 04:14:56;;;;;;;0.40;0.30;;;;;;;9.01;88.37;101103.09;5073684;28;20469;-73
2022/05/03 04:17:23;;;;;;;0.40;0.30;;;;;;;9.07;87.66;101096.59;5073644;28;20438;-74
2022/05/03 04:19:50;;;;;;;1.03;0.97;;;;;;;9.13;86.45;101105.47;5073509;28;20469;-72
2022/05/03 04:22:24;;;;;;;0.40;0.30;;;;;;;9.12;85.81;101103.03;5073597;28;20438;-72
2022/05/03 04:24:50;;;;;;;0.40;0.30;;;;;;;9.11;85.56;101110.34;5073487;28;20449;-73
2022/05/03 04:27:16;;;;;;;0.40;0.30;;;;;;;9.27;85.85;101116.47;5073446;28;20492;-75
2022/05/03 04:29:44;;;;;;;0.40;0.30;;;;;;;9.28;85.46;101112.69;5073365;28;20465;-74
2022/05/03 04:32:11;;;;;;;0.40;0.30;;;;;;;9.36;84.67;101120.22;5073507;28;20495;-74
2022/05/03 04:34:37;;;;;;;1.63;1.53;;;;;;;9.44;83.54;101121.53;5073214;28;20449;-74
2022/05/03 04:37:04;;;;;;;0.40;0.30;;;;;;;9.34;84.18;101125.06;5073117;28;20441;-74
2022/05/03 04:39:31;;;;;;;0.40;0.30;;;;;;;9.34;84.80;101127.78;5072979;28;20472;-74
2022/05/03 04:41:57;;;;;;;0.40;0.30;;;;;;;9.32;85.92;101130.78;5072877;28;20458;-75
2022/05/03 04:44:24;;;;;;;0.40;0.30;;;;;;;9.49;85.56;101135.00;5073263;28;20446;-74
2022/05/03 04:46:51;;;;;;;0.40;0.30;;;;;;;9.66;85.01;101138.16;5073046;28;20488;-75
2022/05/03 04:49:18;;;;;;;2.00;1.90;;;;;;;9.73;85.11;101137.81;5072896;28;20528;-74
2022/05/03 04:51:44;;;;;;;0.50;0.40;;;;;;;9.83;85.43;101135.06;5072489;28;20963;-74
2022/05/03 04:54:11;;;;;;;0.40;0.30;;;;;;;9.88;85.50;101143.13;5073007;28;20442;-74
2022/05/03 04:56:37;;;;;;;0.90;0.90;;;;;;;9.92;85.18;101137.97;5072911;28;20449;-75
2022/05/03 04:59:04;;;;;;;0.40;0.30;;;;;;;9.94;84.85;101138.47;5072833;28;20466;-75
2022/05/03 05:01:31;;;;;;;10.13;3.70;;;;;;;10.00;84.86;101132.72;5072682;28;20957;-74
2022/05/03 05:03:58;;;;;;;0.40;0.30;;;;;;;10.05;84.57;101134.59;5072475;28;20449;-75
2022/05/03 05:06:25;;;;;;;0.40;0.30;;;;;;;10.13;84.48;101133.97;5072419;28;21025;-75
2022/05/03 05:08:51;;;;;;;0.40;0.30;;;;;;;10.21;84.04;101135.28;5072274;28;20990;-75
2022/05/03 05:11:17;;;;;;;0.40;0.30;;;;;;;10.25;83.44;101134.44;5072701;28;20450;-74
2022/05/03 05:13:44;;;;;;;0.40;0.30;;;;;;;10.29;82.38;101135.50;5072451;28;20957;-72
2022/05/03 05:16:10;;;;;;;0.40;0.30;;;;;;;10.31;81.35;101146.84;5072675;28;20528;-72
2022/05/03 05:18:37;;;;;;;0.40;0.30;;;;;;;10.35;81.17;101139.75;5072658;28;20457;-72
2022/05/03 05:21:05;;;;;;;0.40;0.30;;;;;;;10.42;81.48;101139.44;5072290;28;20975;-72
2022/05/03 05:23:31;;;;;;;0.40;0.30;;;;;;;10.51;80.80;101145.03;5072588;28;20441;-72
2022/05/03 05:25:58;;;;;;;0.40;0.40;;;;;;;10.52;78.76;101138.50;5072542;28;20507;-72
2022/05/03 05:28:26;;;;;;;0.40;0.30;;;;;;;10.56;77.67;101155.81;5072368;28;20481;-72
2022/05/03 05:30:53;;;;;;;0.40;0.30;;;;;;;10.62;77.77;101138.41;5072504;28;20449;-72
2022/05/03 05:33:20;;;;;;;0.40;0.30;;;;;;;10.66;79.12;101146.75;5072397;28;20436;-73
2022/05/03 05:35:47;;;;;;;0.40;0.30;;;;;;;10.65;79.63;101151.38;5072768;28;20457;-73
2022/05/03 05:38:16;;;;;;;0.40;0.30;;;;;;;10.75;80.21;101145.84;5072277;28;20445;-72
2022/05/03 05:40:42;;;;;;;0.40;0.30;;;;;;;10.83;80.17;101147.91;5072023;28;20812;-72
2022/05/03 05:43:09;;;;;;;0.40;0.30;;;;;;;10.89;80.19;101158.69;5071892;28;20783;-72
2022/05/03 05:45:35;;;;;;;0.40;0.30;;;;;;;11.02;79.39;101160.72;5071899;28;20445;-72
2022/05/03 05:48:01;;;;;;;0.40;0.30;;;;;;;11.10;79.22;101162.78;5072137;28;20485;-72
2022/05/03 05:50:28;;;;;;;0.40;0.30;;;;;;;11.21;78.87;101164.28;5072120;28;20457;-72
2022/05/03 05:55:42;;;;;;;0.40;0.30;;;;;;;11.34;79.24;101169.00;5071907;28;20489;-73
2022/05/03 05:58:09;;;;;;;0.40;0.30;;;;;;;11.35;79.02;101172.50;5073029;28;20528;-75
2022/05/03 06:00:36;;;;;;;0.40;0.30;;;;;;;11.39;78.96;101170.03;5072156;28;20813;-67
2022/05/03 06:03:03;;;;;;;0.40;0.30;;;;;;;11.41;78.97;101167.81;5072050;28;20437;-67
2022/05/03 06:05:30;;;;;;;0.40;0.30;;;;;;;11.50;79.04;101160.63;5074896;28;20437;-68
2022/05/03 06:07:57;;;;;;;0.40;0.30;;;;;;;11.61;78.97;101165.63;5075364;28;21215;-74
2022/05/03 06:10:24;;;;;;;0.40;0.30;;;;;;;11.73;78.38;101173.34;5075211;28;20469;-75
2022/05/03 06:12:53;;;;;;;0.40;0.30;;;;;;;11.77;77.26;101174.34;5075566;28;20469;-74
2022/05/03 06:15:19;;;;;;;0.40;0.20;;;;;;;11.79;75.78;101174.88;5075399;28;20433;-74
2022/05/03 06:17:46;;;;;;;0.40;0.30;;;;;;;11.86;74.27;101177.22;5075547;28;20476;-73
2022/05/03 06:20:13;;;;;;;0.40;0.30;;;;;;;11.83;75.06;101173.22;5075468;28;20475;-72
2022/05/03 06:22:40;;;;;;;0.40;0.23;;;;;;;11.90;74.42;101177.44;5075489;28;20433;-72
2022/05/03 06:25:08;;;;;;;0.50;0.30;;;;;;;11.89;72.37;101182.06;5075481;28;20480;-71
2022/05/03 06:27:35;;;;;;;0.40;0.30;;;;;;;11.79;69.77;101179.50;5075413;28;20929;-73
2022/05/03 06:30:04;;;;;;;0.40;0.30;;;;;;;11.88;69.20;101180.47;5075390;28;20879;-73
2022/05/03 06:32:30;;;;;;;0.40;0.30;;;;;;;11.97;68.67;101183.31;5075772;28;20437;-78
2022/05/03 06:34:57;;;;;;;0.40;0.30;;;;;;;12.06;68.40;101178.84;5076152;28;20437;-77
2022/05/03 06:37:23;;;;;;;0.40;0.30;;;;;;;12.26;66.75;101183.94;5076308;28;20554;-77
2022/05/03 06:39:49;;;;;;;0.40;0.30;;;;;;;12.33;62.12;101188.97;5077360;28;20832;-77
2022/05/03 06:42:16;;;;;;;0.40;0.30;;;;;;;12.45;62.60;101191.22;5077258;28;20449;-76
2022/05/03 06:44:43;;;;;;;0.40;0.30;;;;;;;12.56;62.94;101192.66;5075973;28;20520;-71
2022/05/03 06:47:10;;;;;;;0.40;0.30;;;;;;;12.60;61.27;101193.66;5078701;28;20859;-77
2022/05/03 06:49:37;;;;;;;0.40;0.30;;;;;;;12.63;62.22;101193.06;5079650;28;20841;-79
2022/05/03 06:52:04;;;;;;;0.53;0.53;;;;;;;12.76;62.62;101195.00;5081660;28;20445;-77
2022/05/03 06:54:30;;;;;;;0.40;0.30;;;;;;;12.92;62.66;101192.78;5084262;28;20441;-79
2022/05/03 06:56:57;;;;;;;0.40;0.30;;;;;;;12.96;60.74;101203.88;5079300;28;20955;-78
2022/05/03 06:59:23;;;;;;;0.40;0.30;;;;;;;12.99;61.01;101200.56;5078578;28;21007;-77
2022/05/03 07:01:50;;;;;;;0.40;0.30;;;;;;;13.02;60.75;101208.13;5076776;28;20441;-76
2022/05/03 07:04:18;;;;;;;0.40;0.30;;;;;;;13.08;59.47;101204.19;5074771;28;20535;-76
2022/05/03 07:06:45;;;;;;;0.40;0.30;;;;;;;13.14;59.38;101211.13;5074988;28;20591;-76
2022/05/03 07:09:12;;;;;;;0.40;0.30;;;;;;;13.25;60.59;101211.75;5074648;28;20572;-76
2022/05/03 07:11:38;;;;;;;0.40;0.30;;;;;;;13.23;58.08;101217.50;5074956;28;20446;-76
2022/05/03 07:14:05;;;;;;;0.40;0.30;;;;;;;13.07;57.91;101213.44;5075066;28;20544;-76
2022/05/03 07:16:31;;;;;;;0.40;0.30;;;;;;;13.09;58.26;101212.03;5073457;28;20951;-76
2022/05/03 07:24:27;;;;;;;0.40;0.30;;;;;;;13.42;57.80;101213.88;5075485;28;20406;-75
2022/05/03 07:26:53;;;;;;;0.40;0.30;;;;;;;13.54;57.67;101212.22;5074291;28;20935;-76
2022/05/03 07:29:20;;;;;;;0.40;0.30;;;;;;;13.73;57.62;101212.09;5074424;28;21011;-76
2022/05/03 07:31:47;;;;;;;0.40;0.30;;;;;;;13.87;55.86;101215.56;5074441;28;20540;-75
2022/05/03 07:34:13;;;;;;;0.40;0.30;;;;;;;13.89;54.02;101217.97;5074226;28;20446;-75
2022/05/03 07:36:42;;;;;;;0.40;0.20;;;;;;;13.96;53.77;101215.66;5074263;28;20946;-76
2022/05/03 07:39:11;;;;;;;0.40;0.30;;;;;;;13.89;54.06;101217.97;5075103;28;20540;-77
2022/05/03 07:41:38;;;;;;;0.40;0.30;;;;;;;13.92;53.96;101214.66;5074633;28;20452;-71
2022/05/03 07:44:04;;;;;;;0.40;0.30;;;;;;;14.00;53.86;101221.28;5074257;28;20437;-70
2022/05/03 07:46:31;;;;;;;0.40;0.30;;;;;;;14.04;54.22;101222.28;5075546;28;20528;-77
2022/05/03 07:48:58;;;;;;;0.40;0.30;;;;;;;14.20;55.05;101223.50;5077024;28;20500;-74
2022/05/03 07:51:25;;;;;;;0.40;0.20;;;;;;;14.22;53.53;101225.94;5077599;28;20503;-77
2022/05/03 07:53:51;;;;;;;0.40;0.30;;;;;;;14.22;51.54;101237.66;5078107;28;20947;-76
2022/05/03 07:56:19;;;;;;;0.40;0.30;;;;;;;14.31;52.03;101241.22;5074152;28;20446;-70
2022/05/03 07:58:46;;;;;;;0.40;0.30;;;;;;;14.26;48.37;101238.63;5074269;28;20457;-75
2022/05/03 08:01:13;;;;;;;0.40;0.30;;;;;;;14.23;49.99;101243.91;5074426;28;20452;-75
2022/05/03 08:03:39;;;;;;;0.40;0.30;;;;;;;14.27;50.81;101239.44;5076031;28;20825;-78
2022/05/03 08:06:05;;;;;;;0.40;0.30;;;;;;;14.48;50.32;101242.47;5086258;28;20440;-78
2022/05/03 08:08:32;;;;;;;0.40;0.30;;;;;;;14.60;50.82;101245.44;5089210;28;20498;-78
2022/05/03 08:10:59;;;;;;;0.40;0.30;;;;;;;14.63;50.22;101239.38;5084377;28;20456;-77
2022/05/03 08:13:26;;;;;;;0.40;0.30;;;;;;;14.63;50.98;101247.56;5081457;28;20449;-77
2022/05/03 08:15:53;;;;;;;0.40;0.30;;;;;;;14.70;50.95;101247.09;5079882;28;20452;-78
2022/05/03 08:18:19;;;;;;;0.40;0.30;;;;;;;14.84;50.79;101242.38;5081506;28;20444;-78
2022/05/03 08:20:46;;;;;;;0.40;0.30;;;;;;;14.94;50.49;101244.03;5082416;28;20824;-77
2022/05/03 08:23:12;;;;;;;0.40;0.30;;;;;;;15.04;49.64;101246.47;5081396;28;20950;-77
2022/05/03 08:25:39;;;;;;;0.40;0.30;;;;;;;15.16;50.75;101243.16;5080004;28;21005;-77
2022/05/03 08:28:06;;;;;;;0.40;0.30;;;;;;;15.24;50.17;101245.94;5084930;28;20489;-79
2022/05/03 08:30:34;;;;;;;0.40;0.30;;;;;;;15.25;51.03;101242.06;5078694;28;20864;-70
2022/05/03 08:33:01;;;;;;;0.40;0.23;;;;;;;15.23;51.31;101244.31;5074978;28;20819;-79
2022/05/03 08:35:28;;;;;;;0.40;0.30;;;;;;;15.33;50.21;101254.13;5076669;28;20450;-77
2022/05/03 08:43:24;;;;;;;0.40;0.30;;;;;;;15.44;47.43;101249.19;5074654;28;20503;-77
2022/05/03 08:45:52;;;;;;;0.40;0.20;;;;;;;15.50;48.72;101243.28;5076255;28;20476;-77
2022/05/03 08:48:21;;;;;;;0.40;0.30;;;;;;;15.60;47.44;101247.63;5074327;28;20485;-76
2022/05/03 08:50:48;;;;;;;0.40;0.20;;;;;;;15.71;47.09;101243.47;5076986;28;20433;-77
2022/05/03 08:53:16;;;;;;;0.40;0.30;;;;;;;15.63;47.88;101245.06;5075903;28;20445;-76
2022/05/03 08:55:43;;;;;;;0.40;0.30;;;;;;;15.71;47.82;101246.22;5075663;28;20446;-77
2022/05/03 08:58:10;;;;;;;0.40;0.30;;;;;;;15.82;46.66;101252.97;5076334;28;20444;-76
2022/05/03 09:00:36;;;;;;;0.40;0.20;;;;;;;15.88;47.21;101248.97;5078612;28;20894;-77
2022/05/03 09:03:04;;;;;;;0.40;0.30;;;;;;;15.74;47.15;101245.56;5073965;28;20476;-77
2022/05/03 09:05:31;;;;;;;0.40;0.30;;;;;;;15.85;46.84;101248.81;5076885;28;20464;-76
2022/05/03 09:07:59;;;;;;;0.40;0.30;;;;;;;15.91;43.91;101249.47;5074709;28;20453;-77
2022/05/03 09:10:28;;;;;;;0.40;0.30;;;;;;;15.89;44.46;101245.13;5073970;28;20474;-76
2022/05/03 09:12:55;;;;;;;0.40;0.30;;;;;;;15.89;46.35;101242.41;5075313;28;20507;-77
2022/05/03 09:15:30;;;;;;;0.40;0.20;;;;;;;15.90;46.82;101240.47;5076643;28;20543;-77
2022/05/03 09:17:57;;;;;;;0.40;0.30;;;;;;;15.82;45.98;101244.78;5076634;28;20452;-77
2022/05/03 09:25:57;;;;;;;0.40;0.30;;;;;;;15.94;46.60;101235.13;5076924;28;20463;-77
2022/05/03 09:28:24;;;;;;;0.40;0.30;;;;;;;15.92;47.28;101223.75;5075929;28;20485;-77
2022/05/03 09:30:52;;;;;;;0.40;0.30;;;;;;;15.96;47.05;101224.72;5077056;28;20440;-76
2022/05/03 09:33:20;;;;;;;0.40;0.30;;;;;;;15.97;43.84;101223.56;5073412;28;20543;-76
2022/05/03 09:35:50;;;;;;;0.40;0.30;;;;;;;16.07;43.69;101223.25;5075141;28;20430;-77
2022/05/03 09:38:18;;;;;;;0.40;0.30;;;;;;;16.20;42.90;101224.19;5078168;28;20441;-77
2022/05/03 09:40:46;;;;;;;0.40;0.20;;;;;;;15.99;41.80;101226.81;5077933;28;20441;-76
2022/05/03 09:43:13;;;;;;;0.40;0.30;;;;;;;16.07;42.35;101231.44;5077481;28;20444;-76
2022/05/03 09:45:40;;;;;;;0.40;0.30;;;;;;;16.19;42.09;101230.81;5079957;28;20441;-77
2022/05/03 09:48:07;;;;;;;0.40;0.20;;;;;;;16.30;42.78;101234.81;5079832;28;20445;-77
2022/05/03 09:50:42;;;;;;;0.60;0.60;;;;;;;16.34;41.35;101225.66;5079348;28;20465;-77
2022/05/03 09:53:12;;;;;;;0.40;0.30;;;;;;;16.37;41.34;101229.66;5078869;28;20926;-77
2022/05/03 09:55:40;;;;;;;0.40;0.30;;;;;;;16.49;41.18;101234.47;5078657;28;20491;-77
2022/05/03 09:58:10;;;;;;;0.40;0.30;;;;;;;16.58;40.85;101230.56;5076753;28;20445;-76
2022/05/03 10:00:39;;;;;;;0.40;0.30;;;;;;;16.65;40.97;101227.34;5077253;28;20511;-77
2022/05/03 10:03:07;;;;;;;0.40;0.20;;;;;;;16.49;40.76;101226.25;5077049;28;20460;-76
2022/05/03 10:05:35;;;;;;;0.40;0.30;;;;;;;16.40;43.05;101227.06;5076823;28;20445;-76
2022/05/03 10:08:03;;;;;;;0.40;0.20;;;;;;;16.68;42.75;101237.63;5076839;28;20452;-76
2022/05/03 10:10:31;;;;;;;0.40;0.30;;;;;;;16.82;42.50;101230.06;5076506;28;21140;-76
2022/05/03 10:12:58;;;;;;;0.40;0.30;;;;;;;16.85;41.51;101231.34;5077282;28;20450;-77
2022/05/03 10:21:02;;;;;;;0.40;0.30;;;;;;;16.88;40.14;101231.50;5075951;28;20566;-76
2022/05/03 10:23:32;;;;;;;0.40;0.30;;;;;;;16.97;40.35;101223.25;5076260;28;20536;-76
2022/05/03 10:26:01;;;;;;;0.40;0.30;;;;;;;17.05;39.75;101218.88;5076069;28;20452;-76
2022/05/03 10:29:05;;;;;;;0.40;0.30;;;;;;;17.06;38.35;101220.47;5076247;28;20523;-76
2022/05/03 10:31:32;;;;;;;0.40;0.30;;;;;;;17.22;39.08;101212.47;5077407;28;20426;-76
2022/05/03 10:34:02;;;;;;;0.40;0.30;;;;;;;17.34;37.74;101229.00;5075701;28;20437;-76
2022/05/03 10:36:42;;;;;;;0.40;0.30;;;;;;;17.24;38.62;101215.72;5076159;28;20433;-76
2022/05/03 10:39:20;;;;;;;0.40;0.30;;;;;;;17.39;39.66;101202.22;5076147;28;20518;-76
2022/05/03 10:41:59;;;;;;;0.40;0.30;;;;;;;17.52;38.84;101210.53;5075687;28;20483;-76
2022/05/03 10:44:39;;;;;;;0.40;0.30;;;;;;;17.60;39.37;101210.47;5077297;28;20429;-77
2022/05/03 10:47:06;;;;;;;0.40;0.30;;;;;;;17.73;38.10;101211.34;5076669;28;20814;-76
2022/05/03 10:49:32;;;;;;;0.40;0.20;;;;;;;17.85;38.28;101214.19;5075411;28;20493;-77
2022/05/03 10:51:59;;;;;;;0.40;0.30;;;;;;;17.96;38.49;101202.81;5076108;28;20442;-77
2022/05/03 10:54:25;;;;;;;0.40;0.20;;;;;;;17.99;38.23;101202.16;5075657;28;20441;-76
2022/05/03 10:57:07;;;;;;;0.40;0.30;;;;;;;18.10;40.07;101211.56;5075767;28;20457;-76
2022/05/03 10:59:47;;;;;;;0.40;0.30;;;;;;;18.11;38.39;101210.44;5075721;28;20465;-76
2022/05/03 11:02:13;;;;;;;0.40;0.20;;;;;;;18.15;38.87;101209.44;5076274;28;20479;-77
2022/05/03 11:05:15;;;;;;;0.40;0.30;;;;;;;18.24;39.24;101203.03;5076261;28;20452;-77
2022/05/03 11:07:41;;;;;;;0.40;0.20;;;;;;;18.35;38.70;101196.81;5014129;28;20432;-76
2022/05/03 11:10:39;;;;;;;0.40;0.30;;;;;;;18.49;38.88;101187.47;5013927;28;20499;-76
2022/05/03 11:13:45;;;;;;;0.40;0.30;;;;;;;18.92;39.27;101197.16;5054478;28;20895;-77
2022/05/03 11:16:23;;;;;;;0.40;0.20;;;;;;;19.64;36.67;101190.81;5075618;28;20839;-77
2022/05/03 11:18:50;;;;;;;0.40;0.30;;;;;;;20.55;36.44;101192.19;5076695;28;20461;-77
2022/05/03 11:21:17;;;;;;;0.40;0.30;;;;;;;21.48;35.10;101194.44;5075902;28;20468;-77
2022/05/03 11:23:49;;;;;;;0.40;0.30;;;;;;;22.02;33.35;101193.59;5076012;28;20430;-76
2022/05/03 11:26:16;;;;;;;0.40;0.30;;;;;;;22.74;33.87;101187.41;5076770;28;20433;-77
2022/05/03 11:28:45;;;;;;;0.40;0.30;;;;;;;23.35;32.55;101192.75;5077129;28;20493;-77
2022/05/03 11:31:12;;;;;;;0.40;0.30;;;;;;;23.85;32.16;101189.88;5075772;28;20465;-77
2022/05/03 11:33:49;;;;;;;0.40;0.20;;;;;;;24.86;32.56;101189.72;5077365;28;20499;-77
2022/05/03 11:36:16;;;;;;;0.40;0.23;;;;;;;25.84;29.83;101185.19;5078060;28;20476;-76
2022/05/03 11:38:42;;;;;;;0.40;0.30;;;;;;;26.17;28.61;101191.66;5077691;28;20514;-77
2022/05/03 11:41:10;;;;;;;0.40;0.30;;;;;;;26.69;28.85;101191.34;5078422;28;20507;-77
2022/05/03 11:43:36;;;;;;;0.40;0.30;;;;;;;26.19;28.31;101194.03;5076856;28;20453;-77
2022/05/03 11:46:04;;;;;;;0.40;0.20;;;;;;;26.20;28.37;101188.09;5078404;28;20815;-77
2022/05/03 11:48:31;;;;;;;0.40;0.30;;;;;;;26.07;28.98;101190.44;5077650;28;20452;-77
2022/05/03 11:56:34;;;;;;;0.40;0.30;;;;;;;27.11;28.49;101190.56;5042312;28;20437;-78
2022/05/03 11:59:01;;;;;;;0.50;0.40;;;;;;;27.95;26.91;101185.16;5080994;28;20974;-78
2022/05/03 12:01:33;;;;;;;0.40;0.30;;;;;;;28.44;26.97;101186.06;5079808;28;20441;-78
2022/05/03 12:04:01;;;;;;;0.40;0.30;;;;;;;27.68;26.29;101187.63;5076967;28;20430;-77
2022/05/03 12:06:34;;;;;;;0.40;0.30;;;;;;;28.12;25.78;101183.47;5079037;28;20441;-77
2022/05/03 12:09:00;;;;;;;0.40;0.30;;;;;;;27.81;26.22;101182.44;5076684;28;20528;-78
2022/05/03 12:11:27;;;;;;;0.40;0.30;;;;;;;27.62;26.63;101181.69;5079241;28;20433;-78
2022/05/03 12:13:54;;;;;;;0.40;0.23;;;;;;;26.30;27.48;101178.22;5075618;28;20442;-76
2022/05/03 12:16:22;;;;;;;0.40;0.30;;;;;;;26.25;28.56;101179.34;5076900;28;20934;-79